world map with FQTT marked

FQTT - Airport

This information may not be accurate or current and is not valid for navigation or flight planning. No warranty of fitness for any purpose is made or implied.

flag of Mozambique

Donate via PayPal

Additional information is available on the NEW Great Circle Mapper

Location
City:  Tete, Tete, Mozambique
Near (Alt.):Chingodzi
Name:Chingodzi Airport (Matunda Airport)
ICAO / IATA:FQTT / TET

Details
Type:Airport (Aerodrome, Airfield)
Use:Public/Civil
Latitude:16°06'17"S (-16.104816)
Longitude:33°38'25"E (33.640181)
Datum:WGS 1984
Elevation:525 ft (160 m)
Runways:1
Longest:8225 × 148 ft (2507 × 45 m)

Time
Timezone:UTC+2 (DST+4)
Local Time:

Weather
METAR:FQTT  221600Z 15016KT 9999 FEW020 27/10 Q1023
TAF:FQTT  (expired)

Related Locations
Nearby:
Farthest:ITO: 11822 mi / 19026 km
Hilo [Hilo Intl], Hawaii, HI, US

Find:

   beyond  
but within

Other Information
Maps:
Sources:

  


 


Great Circle Mapper   Great Circle Mapper
Great Circle Mapper FAQ   Great Circle Mapper FAQ
  Karl's Home Page
KLSē   KLSē Home
   GC on Facebook
Airlines of the World   Airlines of the World
Donate via PayPal


Copyright © 2004-2018, Karl L. Swartz. All rights reserved.
All trademarks mentioned herein belong to their respective owners.

Please see credits for attribution and copyright information.

Karl Swartz <karl@kls2.com>
  Powered by FreeBSD
Valid HTML 4.01!
Labeled with ICRA
hCard Microformat
Geo Microformat